Latest Weather Observations for Ocean Reef

IDW60801

Issued at 10:33 pm WST Tuesday 23 May 2017 (issued every 30 minutes, with the page automatically refreshed every 10 minutes)

About weather observations | Map of weather stations | Latest weather observations for WA | Other Formats
Station Details ID: 009214 Name: OCEAN REEF Lat: -31.76 Lon: 115.73 Height: 10.0 m
Data from the previous 72 hours. | See also: Recent months at Ocean Reef
Date/Time
WST
Temp
°C
App
Temp
°C
Dew
Point
°C
Rel
Hum
%
Delta-T
°C
Wind Press
QNH
hPa
Press
MSL
hPa
Rain since
9am
mm
Dir  Spd
km/h
Gust
km/h
Spd
kts
Gust
kts
23/10:30pm - - - - - ENE 15 19 8 10 - - -
23/10:00pm - - - - - NE 15 17 8 9 - - -
23/09:30pm - - - - - ENE 13 17 7 9 - - -
23/09:00pm - - - - - ENE 13 15 7 8 - - -
23/08:30pm - - - - - S 11 15 6 8 - - -
23/08:00pm - - - - - WSW 20 24 11 13 - - -
23/07:30pm - - - - - NE 9 11 5 6 - - -
23/07:00pm - - - - - NNE 9 11 5 6 - - -
23/06:30pm - - - - - N 11 17 6 9 - - -
23/06:00pm - - - - - NE 9 13 5 7 - - -
23/05:30pm - - - - - NE 11 13 6 7 - - -
23/05:00pm - - - - - SE 9 9 5 5 - - -
23/04:30pm - - - - - SE 7 9 4 5 - - -
23/04:00pm - - - - - S 9 11 5 6 - - -
23/03:30pm - - - - - SSW 11 13 6 7 - - -
23/03:00pm - - - - - SW 7 11 4 6 - - -
23/02:30pm - - - - - NW 11 15 6 8 - - -
23/02:00pm - - - - - NNW 4 9 2 5 - - -
23/01:30pm - - - - - NW 19 24 10 13 - - -
23/01:00pm - - - - - NNW 20 24 11 13 - - -
23/12:30pm - - - - - N 13 19 7 10 - - -
23/12:00pm - - - - - N 17 20 9 11 - - -
23/11:30am - - - - - N 13 19 7 10 - - -
23/11:00am - - - - - N 11 15 6 8 - - -
23/10:30am - - - - - NNE 13 17 7 9 - - -
23/10:00am - - - - - NNE 15 20 8 11 - - -
23/09:30am - - - - - N 15 22 8 12 - - -
23/09:00am - - - - - NNE 17 22 9 12 - - -
23/08:30am - - - - - NNE 17 22 9 12 - - -
23/08:00am - - - - - NNE 17 22 9 12 - - -
23/07:30am - - - - - NNE 17 22 9 12 - - -
23/07:00am - - - - - NNE 17 20 9 11 - - -
23/06:30am - - - - - NNE 15 19 8 10 - - -
23/06:00am - - - - - NNE 13 19 7 10 - - -
23/05:30am - - - - - NNE 17 22 9 12 - - -
23/05:00am - - - - - NNE 17 20 9 11 - - -
23/04:30am - - - - - NNE 15 19 8 10 - - -
23/04:00am - - - - - NNE 15 20 8 11 - - -
23/03:30am - - - - - NNE 13 17 7 9 - - -
23/03:00am - - - - - N 15 19 8 10 - - -
23/02:30am - - - - - NNE 17 19 9 10 - - -
23/02:00am - - - - - NNE 13 17 7 9 - - -
23/01:30am - - - - - NE 15 17 8 9 - - -
23/01:00am - - - - - N 13 20 7 11 - - -
23/12:30am - - - - - NNE 17 20 9 11 - - -
23/12:00am - - - - - NNE 13 19 7 10 - - -
 
Date/Time
WST
Temp
°C
App
Temp
°C
Dew
Point
°C
Rel
Hum
%
Delta-T
°C
Wind Press
QNH
hPa
Press
MSL
hPa
Rain since
9am
mm
Dir  Spd
km/h
Gust
km/h
Spd
kts
Gust
kts
22/11:30pm - - - - - NE 11 15 6 8 - - -
22/11:00pm - - - - - SSW 24 30 13 16 - - -
22/10:30pm - - - - - SW 30 37 16 20 - - -
22/10:00pm - - - - - WSW 20 35 11 19 - - -
22/09:30pm - - - - - NNE 15 19 8 10 - - -
22/09:00pm - - - - - NNE 13 19 7 10 - - -
22/08:30pm - - - - - NNE 17 20 9 11 - - -
22/08:00pm - - - - - NNE 17 19 9 10 - - -
22/07:30pm - - - - - N 15 19 8 10 - - -
22/07:00pm - - - - - WNW 15 24 8 13 - - -
22/06:30pm - - - - - NW 15 17 8 9 - - -
22/06:00pm - - - - - NW 13 17 7 9 - - -
22/05:30pm - - - - - SSW 7 17 4 9 - - -
22/05:07pm - - - - - NNW 19 33 10 18 - - -
22/05:00pm - - - - - N 17 24 9 13 - - -
22/04:30pm - - - - - NW 20 32 11 17 - - -
22/04:00pm - - - - - W 17 28 9 15 - - -
22/03:30pm - - - - - W 20 26 11 14 - - -
22/03:00pm - - - - - WSW 22 30 12 16 - - -
22/02:30pm - - - - - WNW 15 22 8 12 - - -
22/02:00pm - - - - - NNW 9 11 5 6 - - -
22/01:30pm - - - - - S 11 30 6 16 - - -
22/01:00pm - - - - - NNW 6 9 3 5 - - -
22/12:30pm - - - - - WNW 7 13 4 7 - - -
22/12:00pm - - - - - NNW 9 13 5 7 - - -
22/11:30am - - - - - NNW 13 19 7 10 - - -
22/11:00am - - - - - NE 13 17 7 9 - - -
22/10:30am - - - - - NE 17 20 9 11 - - -
22/10:00am - - - - - NE 15 22 8 12 - - -
22/09:30am - - - - - NE 17 26 9 14 - - -
22/09:00am - - - - - NE 17 20 9 11 - - -
22/08:30am - - - - - NE 17 22 9 12 - - -
22/08:00am - - - - - ENE 17 22 9 12 - - -
22/07:30am - - - - - ENE 17 20 9 11 - - -
22/07:00am - - - - - ENE 19 24 10 13 - - -
22/06:30am - - - - - ENE 19 24 10 13 - - -
22/06:00am - - - - - ENE 19 24 10 13 - - -
22/05:30am - - - - - ENE 20 24 11 13 - - -
22/05:00am - - - - - ENE 19 24 10 13 - - -
22/04:30am - - - - - NE 15 19 8 10 - - -
22/04:00am - - - - - NE 17 22 9 12 - - -
22/03:30am - - - - - ENE 17 20 9 11 - - -
22/03:00am - - - - - ENE 17 22 9 12 - - -
22/02:30am - - - - - ENE 19 24 10 13 - - -
22/02:00am - - - - - ENE 15 19 8 10 - - -
22/01:30am - - - - - E 13 22 7 12 - - -
22/01:00am - - - - - ENE 17 20 9 11 - - -
22/12:30am - - - - - ENE 19 26 10 14 - - -
22/12:00am - - - - - S 30 48 16 26 - - -
 
Date/Time
WST
Temp
°C
App
Temp
°C
Dew
Point
°C
Rel
Hum
%
Delta-T
°C
Wind Press
QNH
hPa
Press
MSL
hPa
Rain since
9am
mm
Dir  Spd
km/h
Gust
km/h
Spd
kts
Gust
kts
21/11:30pm - - - - - SW 30 39 16 21 - - -
21/11:00pm - - - - - SW 37 44 20 24 - - -
21/10:51pm - - - - - SSW 15 39 8 21 - - -
21/10:30pm - - - - - WSW 13 19 7 10 - - -
21/10:00pm - - - - - SW 26 35 14 19 - - -
21/09:30pm - - - - - SSW 41 54 22 29 - - -
21/09:16pm - - - - - SW 33 65 18 35 - - -
21/09:00pm - - - - - SW 32 41 17 22 - - -
21/08:30pm - - - - - SW 35 43 19 23 - - -
21/08:00pm - - - - - SW 37 50 20 27 - - -
21/07:30pm - - - - - SSW 33 46 18 25 - - -
21/07:00pm - - - - - SW 28 37 15 20 - - -
21/06:30pm - - - - - SW 35 43 19 23 - - -
21/06:00pm - - - - - SSW 39 48 21 26 - - -
21/05:30pm - - - - - SW 35 41 19 22 - - -
21/05:00pm - - - - - SW 46 54 25 29 - - -
21/04:30pm - - - - - SSW 33 44 18 24 - - -
21/04:00pm - - - - - SW 35 43 19 23 - - -
21/03:30pm - - - - - SW 43 52 23 28 - - -
21/03:00pm - - - - - SW 41 57 22 31 - - -
21/02:56pm - - - - - SW 35 56 19 30 - - -
21/02:30pm - - - - - SW 43 52 23 28 - - -
21/02:00pm - - - - - SW 41 56 22 30 - - -
21/01:30pm - - - - - SW 39 50 21 27 - - -
21/01:00pm - - - - - SW 43 57 23 31 - - -
21/12:30pm - - - - - SW 41 52 22 28 - - -
21/12:00pm - - - - - SW 44 56 24 30 - - -
21/11:30am - - - - - SW 39 50 21 27 - - -
21/11:00am - - - - - SW 39 50 21 27 - - -
21/10:30am - - - - - SW 48 59 26 32 - - -
21/10:00am - - - - - SSW 33 46 18 25 - - -
21/09:30am - - - - - SW 39 50 21 27 - - -
21/09:21am - - - - - WSW 39 57 21 31 - - -
21/09:15am - - - - - WSW 41 54 22 29 - - -
21/09:00am - - - - - WSW 50 67 27 36 - - -
21/08:57am - - - - - WSW 46 67 25 36 - - -
21/08:55am - - - - - WSW 43 61 23 33 - - -
21/08:52am - - - - - W 43 52 23 28 - - -
21/08:30am - - - - - W 46 57 25 31 - - -
21/08:00am - - - - - W 44 52 24 28 - - -
21/07:30am - - - - - W 44 52 24 28 - - -
21/07:00am - - - - - W 43 54 23 29 - - -
21/06:30am - - - - - W 48 57 26 31 - - -
21/06:00am - - - - - W 52 65 28 35 - - -
21/05:31am - - - - - W 44 65 24 35 - - -
21/05:30am - - - - - W 43 59 23 32 - - -
21/05:05am - - - - - WNW 48 70 26 38 - - -
21/05:00am - - - - - WNW 46 56 25 30 - - -
21/04:30am - - - - - WNW 52 70 28 38 - - -
21/04:28am - - - - - WNW 48 69 26 37 - - -
21/04:00am - - - - - WNW 57 72 31 39 - - -
21/03:59am - - - - - W 56 72 30 39 - - -
21/03:45am - - - - - WSW 48 74 26 40 - - -
21/03:30am - - - - - WSW 48 63 26 34 - - -
21/03:17am - - - - - WNW 59 72 32 39 - - -
21/03:00am - - - - - NW 61 74 33 40 - - -
21/02:30am - - - - - NW 56 76 30 41 - - -
21/02:22am - - - - - WNW 54 76 29 41 - - -
21/02:19am - - - - - WNW 54 70 29 38 - - -
21/02:00am - - - - - NW 57 70 31 38 - - -
21/01:30am - - - - - NW 57 70 31 38 - - -
21/01:00am - - - - - NW 57 69 31 37 - - -
21/12:30am - - - - - NW 56 70 30 38 - - -
21/12:05am - - - - - NW 50 70 27 38 - - -
21/12:00am - - - - - NW 52 69 28 37 - - -
 
Date/Time
WST
Temp
°C
App
Temp
°C
Dew
Point
°C
Rel
Hum
%
Delta-T
°C
Wind Press
QNH
hPa
Press
MSL
hPa
Rain since
9am
mm
Dir  Spd
km/h
Gust
km/h
Spd
kts
Gust
kts
20/11:57pm - - - - - NW 54 76 29 41 - - -
20/11:48pm - - - - - NW 52 70 28 38 - - -
20/11:30pm - - - - - NW 52 59 28 32 - - -
20/11:00pm - - - - - NW 48 57 26 31 - - -

Other Formats:

Comma delimited format used in spreadsheet applications
http://www.bom.gov.au/fwo/IDW60801/IDW60801.94607.axf

JavaScript Object Notation format (JSON) in row-major order
http://www.bom.gov.au/fwo/IDW60801/IDW60801.94607.json